Time;durP1;ratioP1;P1;durP2;ratioP2;P2;SDS_P1;SDS_P2;PMS_P1;PMS_P2;Temp;Humidity;BMP_temperature;BMP_pressure;BME280_temperature;BME280_humidity;BME280_pressure;Samples;Min_cycle;Max_cycle;Signal;HPM_P1;HPM_P2
2021/07/28 00:04:53;;;;;;;;;;;19.80;99.90;;;18.80;100.00;95535.44;10307058;28;2070;-83
2021/07/28 00:09:56;;;;;;;;;;;19.80;99.90;;;18.78;100.00;95546.69;10319907;28;1950;-82
2021/07/28 00:14:59;;;;;;;;;;;19.80;99.90;;;18.78;100.00;95552.13;10313242;28;1669;-81
2021/07/28 00:20:03;;;;;;;;;;;19.70;99.90;;;18.79;100.00;95547.47;10308915;28;2007;-82
2021/07/28 00:25:05;;;;;;;;;;;19.70;99.90;;;18.83;100.00;95571.00;10312875;28;2060;-82
2021/07/28 00:30:09;;;;;;;;;;;19.70;99.90;;;18.89;100.00;95577.03;10298017;28;1921;-81
2021/07/28 00:35:12;;;;;;;;;;;19.80;99.90;;;18.79;100.00;95580.16;10305778;28;2029;-79
2021/07/28 00:40:14;;;;;;;;;;;19.70;99.90;;;18.74;100.00;95578.41;10300194;28;2140;-79
2021/07/28 00:45:17;;;;;;;;;;;19.60;99.90;;;18.50;100.00;95570.03;10303430;28;2008;-83
2021/07/28 00:50:20;;;;;;;;;;;19.50;99.90;;;18.37;100.00;95572.66;10305499;28;2132;-81
2021/07/28 00:55:22;;;;;;;;;;;19.40;99.90;;;18.15;100.00;95561.25;10319583;28;2022;-81
2021/07/28 01:00:25;;;;;;;;;;;19.20;99.90;;;18.13;100.00;95558.84;10308374;28;2150;-81
2021/07/28 01:05:28;;;;;;;;;;;19.00;99.90;;;17.96;100.00;95548.06;10320866;28;2268;-82
2021/07/28 01:10:30;;;;;;;;;;;18.90;99.90;;;17.86;100.00;95537.53;10322722;28;2124;-80
2021/07/28 01:15:39;;;;;;;;;;;18.80;99.90;;;17.81;100.00;95525.72;10318188;28;2083;-81
2021/07/28 01:20:42;;;;;;;;;;;18.80;99.90;;;17.68;100.00;95513.06;10304852;28;2022;-80
2021/07/28 01:25:45;;;;;;;;;;;18.70;99.90;;;17.66;100.00;95512.63;10303428;28;2084;-82
2021/07/28 01:30:48;;;;;;;;;;;18.60;99.90;;;17.70;100.00;95499.97;10297199;28;2208;-80
2021/07/28 01:35:50;;;;;;;;;;;18.60;99.90;;;17.76;100.00;95501.44;10304166;28;2155;-81
2021/07/28 01:40:53;;;;;;;;;;;18.70;99.90;;;17.87;100.00;95517.38;10311463;28;2070;-81
2021/07/28 01:45:56;;;;;;;;;;;18.70;99.90;;;18.11;100.00;95531.19;10295979;28;2033;-80
2021/07/28 01:50:59;;;;;;;;;;;18.80;99.90;;;18.15;100.00;95523.97;10295032;28;2065;-78
2021/07/28 01:56:02;;;;;;;;;;;18.90;99.90;;;17.98;100.00;95530.28;10290101;28;1975;-81
2021/07/28 02:01:04;;;;;;;;;;;18.90;99.90;;;18.02;100.00;95538.59;10299688;28;2192;-82
2021/07/28 02:06:07;;;;;;;;;;;18.90;99.90;;;17.93;100.00;95533.16;10306230;28;2307;-82
2021/07/28 02:11:10;;;;;;;;;;;18.90;99.90;;;17.87;100.00;95515.44;10294469;28;2018;-82
2021/07/28 02:16:13;;;;;;;;;;;18.80;99.90;;;17.80;100.00;95513.22;10315908;28;1723;-81
2021/07/28 02:21:15;;;;;;;;;;;18.70;99.90;;;17.75;100.00;95507.16;10314475;28;2099;-81
2021/07/28 02:26:18;;;;;;;;;;;18.70;99.90;;;17.78;100.00;95498.38;10305038;28;2072;-80
2021/07/28 02:31:21;;;;;;;;;;;18.70;99.90;;;17.70;100.00;95499.97;10298297;28;2199;-81
2021/07/28 02:36:24;;;;;;;;;;;18.60;99.90;;;17.90;100.00;95516.72;10298497;28;2176;-84
2021/07/28 02:41:26;;;;;;;;;;;18.70;99.90;;;17.73;100.00;95506.72;10286796;28;1982;-82
2021/07/28 02:46:29;;;;;;;;;;;18.70;99.90;;;17.77;100.00;95518.53;10297418;28;2145;-82
2021/07/28 02:51:32;;;;;;;;;;;18.70;99.90;;;17.78;100.00;95512.75;10286047;28;2136;-80
2021/07/28 02:56:35;;;;;;;;;;;18.70;99.90;;;17.79;100.00;95516.28;10289737;28;2175;-81
2021/07/28 03:01:37;;;;;;;;;;;18.70;99.90;;;17.85;100.00;95525.84;10299816;28;2083;-81
2021/07/28 03:06:40;;;;;;;;;;;18.70;99.90;;;17.82;100.00;95534.69;10300711;28;2101;-80
2021/07/28 03:11:43;;;;;;;;;;;18.70;99.90;;;17.86;100.00;95529.38;10291192;28;2267;-80
2021/07/28 03:16:46;;;;;;;;;;;18.80;99.90;;;17.88;100.00;95518.94;10311907;28;2101;-80
2021/07/28 03:21:48;;;;;;;;;;;18.70;99.90;;;17.91;100.00;95518.31;10301865;28;2177;-82
2021/07/28 03:26:51;;;;;;;;;;;18.70;99.90;;;17.53;100.00;95527.19;10305463;28;2135;-82
2021/07/28 03:31:54;;;;;;;;;;;18.60;99.90;;;17.63;100.00;95524.16;10312427;28;2228;-81
2021/07/28 03:36:56;;;;;;;;;;;18.50;99.90;;;17.51;100.00;95532.16;10307228;28;2472;-82
2021/07/28 03:41:59;;;;;;;;;;;18.40;99.90;;;17.62;100.00;95544.28;10299393;28;2029;-80
2021/07/28 03:47:06;;;;;;;;;;;18.40;99.90;;;17.52;100.00;95523.69;10296083;28;2093;-81
2021/07/28 03:52:09;;;;;;;;;;;18.50;99.90;;;17.42;100.00;95520.50;10303355;28;2060;-81
2021/07/28 03:57:12;;;;;;;;;;;18.40;99.90;;;17.31;100.00;95508.41;10282162;28;1886;-82
2021/07/28 04:02:15;;;;;;;;;;;18.20;99.90;;;17.25;100.00;95508.56;10303062;28;2108;-82
2021/07/28 04:07:18;;;;;;;;;;;18.20;99.90;;;17.24;100.00;95493.41;10296031;28;2142;-82
2021/07/28 04:12:21;;;;;;;;;;;18.20;99.90;;;17.33;100.00;95503.44;10302718;28;2229;-81
2021/07/28 04:17:34;;;;;;;;;;;18.20;99.90;;;17.36;100.00;95497.34;10297388;28;1923;-81
2021/07/28 04:22:36;;;;;;;;;;;18.20;99.90;;;17.42;100.00;95502.28;10291647;28;2055;-82
2021/07/28 04:27:39;;;;;;;;;;;18.20;99.90;;;17.48;100.00;95498.28;10297745;28;2065;-81
2021/07/28 04:32:42;;;;;;;;;;;18.20;99.90;;;17.45;100.00;95512.53;10298960;28;2204;-81
2021/07/28 04:37:45;;;;;;;;;;;18.30;99.90;;;17.45;100.00;95509.00;10291794;28;2372;-81
2021/07/28 04:42:48;;;;;;;;;;;18.30;99.90;;;17.39;100.00;95513.00;10300175;28;2199;-81
2021/07/28 04:47:51;;;;;;;;;;;18.30;99.90;;;17.27;100.00;95516.38;10304956;28;2283;-80
2021/07/28 04:52:53;;;;;;;;;;;18.20;99.90;;;17.31;100.00;95527.44;10316007;28;1739;-80
2021/07/28 04:57:57;;;;;;;;;;;18.10;99.90;;;17.23;100.00;95529.00;10298670;28;2212;-79
2021/07/28 05:03:00;;;;;;;;;;;18.10;99.90;;;17.30;100.00;95532.03;10313559;28;2061;-79
2021/07/28 05:08:03;;;;;;;;;;;18.10;99.90;;;17.47;100.00;95518.41;10304246;28;2137;-81
2021/07/28 05:13:05;;;;;;;;;;;18.20;99.90;;;17.69;100.00;95522.84;10294502;28;2033;-81
2021/07/28 05:18:08;;;;;;;;;;;18.40;99.90;;;17.71;100.00;95520.63;10314008;28;2181;-84
2021/07/28 05:23:11;;;;;;;;;;;18.50;99.90;;;17.65;100.00;95516.47;10300445;28;2140;-81
2021/07/28 05:28:14;;;;;;;;;;;18.60;99.90;;;17.94;100.00;95504.88;10305510;28;2092;-81
2021/07/28 05:33:16;;;;;;;;;;;18.60;99.90;;;18.23;100.00;95504.06;10290944;28;2092;-82
2021/07/28 05:38:19;;;;;;;;;;;18.90;99.90;;;18.44;100.00;95508.75;10296461;28;2165;-82
2021/07/28 05:43:25;;;;;;;;;;;19.00;99.90;;;18.46;100.00;95498.34;10297979;28;2087;-80
2021/07/28 05:48:31;;;;;;;;;;;19.10;99.90;;;18.77;100.00;95504.25;10311995;28;1338;-82
2021/07/28 05:53:34;;;;;;;;;;;19.30;99.90;;;19.06;100.00;95508.81;10279792;28;2080;-82
2021/07/28 05:58:37;;;;;;;;;;;19.70;99.90;;;19.19;100.00;95504.19;10275388;28;2082;-83
2021/07/28 06:03:40;;;;;;;;;;;19.80;99.90;;;19.11;100.00;95510.53;10290948;28;2189;-83
2021/07/28 06:08:43;;;;;;;;;;;19.90;99.90;;;19.54;100.00;95496.47;10289326;28;2454;-82
2021/07/28 06:13:46;;;;;;;;;;;20.00;99.90;;;19.64;100.00;95492.53;10286791;28;2179;-82
2021/07/28 06:18:48;;;;;;;;;;;20.30;99.90;;;19.73;99.04;95506.91;10295133;28;2146;-83
2021/07/28 06:23:51;;;;;;;;;;;20.40;99.90;;;19.61;99.38;95496.75;10296043;28;2165;-82
2021/07/28 06:28:55;;;;;;;;;;;20.50;99.90;;;19.74;97.68;95494.84;10289219;28;2076;-83
2021/07/28 06:33:57;;;;;;;;;;;20.50;99.90;;;20.29;91.74;95481.78;10302101;28;2223;-83
2021/07/28 06:39:00;;;;;;;;;;;20.70;99.90;;;20.67;95.00;95484.94;10325595;28;1946;-84
2021/07/28 06:44:03;;;;;;;;;;;21.20;99.90;;;21.21;90.16;95500.16;10345712;28;1935;-84
2021/07/28 06:49:06;;;;;;;;;;;21.60;99.90;;;20.70;92.10;95502.59;10319996;28;1395;-84
2021/07/28 06:54:08;;;;;;;;;;;21.60;99.90;;;20.43;92.12;95502.13;10334150;28;1336;-84
2021/07/28 06:59:11;;;;;;;;;;;21.40;99.90;;;20.72;88.40;95494.81;10326972;28;1969;-82
2021/07/28 07:04:14;;;;;;;;;;;21.30;99.90;;;20.65;88.59;95500.88;10336289;28;1940;-81
2021/07/28 07:09:17;;;;;;;;;;;21.40;99.90;;;21.03;88.34;95505.09;10304813;28;1912;-85
2021/07/28 07:14:21;;;;;;;;;;;21.50;99.90;;;21.15;87.42;95498.81;10307293;28;1641;-84
2021/07/28 07:19:25;;;;;;;;;;;21.70;99.90;;;21.29;88.49;95501.97;10304878;28;1972;-84
2021/07/28 07:24:27;;;;;;;;;;;21.80;99.90;;;21.47;84.36;95505.19;10301398;28;1668;-84
2021/07/28 07:29:30;;;;;;;;;;;22.00;99.90;;;22.38;80.64;95502.41;10319099;28;1745;-85
2021/07/28 07:34:33;;;;;;;;;;;22.40;99.90;;;22.36;80.33;95493.75;10332532;28;1230;-85
2021/07/28 07:39:37;;;;;;;;;;;22.70;99.90;;;22.14;79.52;95500.69;10316930;28;2112;-85
2021/07/28 07:44:40;;;;;;;;;;;22.80;99.90;;;21.90;80.55;95503.56;10314916;28;2212;-83
2021/07/28 07:49:43;;;;;;;;;;;22.60;99.90;;;21.94;80.41;95491.53;10301571;28;1870;-80
2021/07/28 07:54:45;;;;;;;;;;;22.50;99.90;;;21.72;81.14;95492.16;10305061;28;2019;-82
2021/07/28 07:59:48;;;;;;;;;;;22.40;99.90;;;21.86;81.28;95503.47;10310488;28;1971;-81
2021/07/28 08:04:51;;;;;;;;;;;22.50;99.90;;;22.11;79.95;95499.44;10314865;28;2048;-84
2021/07/28 08:09:54;;;;;;;;;;;22.60;99.90;;;21.49;81.51;95509.16;10325061;28;1594;-84
2021/07/28 08:14:56;;;;;;;;;;;22.50;99.90;;;21.17;84.79;95507.44;10283091;28;2256;-82
2021/07/28 08:20:00;;;;;;;;;;;22.10;99.90;;;20.48;87.20;95512.84;10281181;28;1996;-79
2021/07/28 08:25:03;;;;;;;;;;;21.70;99.90;;;19.97;92.12;95515.09;10284527;28;2189;-82
2021/07/28 08:30:06;;;;;;;;;;;21.20;99.90;;;19.70;92.12;95516.53;10285851;28;2090;-81
2021/07/28 08:35:09;;;;;;;;;;;20.80;99.90;;;19.63;91.72;95521.75;10291966;28;1952;-82
2021/07/28 08:40:12;;;;;;;;;;;20.60;99.90;;;19.68;93.73;95524.25;10298649;28;2200;-82
2021/07/28 08:45:14;;;;;;;;;;;20.60;99.90;;;19.53;94.55;95532.25;10307593;28;1786;-82
2021/07/28 08:50:17;;;;;;;;;;;20.50;99.90;;;19.41;96.52;95542.00;10314102;28;1975;-81
2021/07/28 08:55:22;;;;;;;;;;;20.40;99.90;;;19.19;97.76;95555.97;10310136;28;1888;-80
2021/07/28 09:00:25;;;;;;;;;;;20.20;99.90;;;19.17;98.60;95564.47;10297957;28;1911;-81
2021/07/28 09:05:28;;;;;;;;;;;20.10;99.90;;;18.76;100.00;95576.16;10281824;28;2039;-84
2021/07/28 09:10:30;;;;;;;;;;;19.90;99.90;;;18.14;100.00;95567.81;10288496;28;1678;-84
2021/07/28 09:15:33;;;;;;;;;;;19.40;99.90;;;17.90;100.00;95579.28;10296928;28;2032;-84
2021/07/28 09:20:36;;;;;;;;;;;19.00;99.90;;;17.92;100.00;95571.56;10284751;28;1910;-81
2021/07/28 09:25:41;;;;;;;;;;;18.80;99.90;;;17.87;100.00;95588.06;10295721;28;2058;-82
2021/07/28 09:30:44;;;;;;;;;;;18.80;99.90;;;17.69;100.00;95598.97;10292555;28;1909;-83
2021/07/28 09:35:48;;;;;;;;;;;18.60;99.90;;;17.66;100.00;95605.03;10298441;28;1901;-81
2021/07/28 09:40:51;;;;;;;;;;;18.50;99.90;;;17.45;100.00;95593.25;10299399;28;1914;-81
2021/07/28 09:45:54;;;;;;;;;;;18.40;99.90;;;17.31;100.00;95589.91;10291166;28;2047;-83
2021/07/28 09:50:57;;;;;;;;;;;18.30;99.90;;;17.20;100.00;95590.22;10283348;28;2565;-82
2021/07/28 09:56:00;;;;;;;;;;;18.20;99.90;;;17.29;100.00;95603.78;10296438;28;1991;-84
2021/07/28 10:01:06;;;;;;;;;;;18.10;99.90;;;17.33;100.00;95631.13;10292049;28;2126;-82
2021/07/28 10:06:09;;;;;;;;;;;18.20;99.90;;;17.47;100.00;95650.78;10293415;28;1677;-82
2021/07/28 10:11:13;;;;;;;;;;;18.20;99.90;;;17.63;100.00;95665.50;10294790;28;1947;-82
2021/07/28 10:16:16;;;;;;;;;;;18.30;99.90;;;17.55;100.00;95663.56;10285358;28;1600;-83
2021/07/28 10:21:20;;;;;;;;;;;18.40;99.90;;;17.47;100.00;95658.94;10289484;28;2265;-82
2021/07/28 10:26:23;;;;;;;;;;;18.40;99.90;;;17.43;100.00;95668.81;10290287;28;1793;-83
2021/07/28 10:31:28;;;;;;;;;;;18.30;99.90;;;17.27;100.00;95668.50;10289415;28;1944;-82
2021/07/28 10:36:31;;;;;;;;;;;18.10;99.90;;;17.54;100.00;95678.25;10292397;28;2155;-84
2021/07/28 10:41:35;;;;;;;;;;;18.10;99.90;;;17.76;100.00;95669.97;10294332;28;1954;-82
2021/07/28 10:46:38;;;;;;;;;;;18.40;99.90;;;17.80;100.00;95657.31;10288114;28;1923;-84
2021/07/28 10:51:40;;;;;;;;;;;18.60;99.90;;;18.05;100.00;95650.25;10293344;28;1821;-82
2021/07/28 10:56:43;;;;;;;;;;;18.50;99.90;;;18.22;100.00;95652.13;10294573;28;1740;-83
2021/07/28 11:01:46;;;;;;;;;;;18.80;99.90;;;18.44;100.00;95655.72;10304534;28;1891;-82
2021/07/28 11:06:51;;;;;;;;;;;19.00;99.90;;;18.29;100.00;95651.63;10303755;28;2175;-84
2021/07/28 11:11:54;;;;;;;;;;;19.00;99.90;;;18.54;100.00;95660.81;10315354;28;1614;-85
2021/07/28 11:16:57;;;;;;;;;;;19.10;99.90;;;19.19;100.00;95645.88;10322359;28;1551;-82
2021/07/28 11:21:59;;;;;;;;;;;19.40;99.90;;;19.98;100.00;95647.66;10309989;28;1956;-84
2021/07/28 11:27:02;;;;;;;;;;;20.00;99.90;;;20.61;95.37;95652.09;10302469;28;2059;-82
2021/07/28 11:32:07;;;;;;;;;;;20.70;99.90;;;21.36;89.11;95640.78;10300577;28;1979;-82
2021/07/28 11:37:20;;;;;;;;;;;21.30;99.90;;;22.25;83.81;95646.84;10305543;28;2059;-84
2021/07/28 11:42:23;;;;;;;;;;;22.10;99.90;;;22.30;83.70;95670.44;10304782;28;1965;-82
2021/07/28 11:47:28;;;;;;;;;;;22.60;99.90;;;21.40;86.42;95669.84;10292636;28;1838;-83
2021/07/28 11:52:32;;;;;;;;;;;22.40;99.90;;;20.65;89.86;95666.69;10308245;28;1880;-83
2021/07/28 11:57:38;;;;;;;;;;;21.80;99.90;;;20.73;89.12;95666.56;10317707;28;2086;-85
2021/07/28 12:02:48;;;;;;;;;;;21.40;99.90;;;20.82;86.71;95674.66;10318454;28;1943;-84
2021/07/28 12:07:51;;;;;;;;;;;21.40;99.90;;;20.78;88.00;95680.00;10323260;28;2043;-85
2021/07/28 12:12:55;;;;;;;;;;;21.40;99.90;;;20.32;86.04;95672.97;10318216;28;2161;-83
2021/07/28 12:17:58;;;;;;;;;;;21.30;99.90;;;20.22;88.20;95668.72;10309180;28;1561;-84
2021/07/28 12:23:04;;;;;;;;;;;21.10;99.90;;;20.00;90.69;95674.59;10314177;28;1979;-83
2021/07/28 12:28:07;;;;;;;;;;;20.70;99.90;;;20.08;94.33;95662.00;10317589;28;1748;-83
2021/07/28 12:33:10;;;;;;;;;;;20.70;99.90;;;20.32;93.48;95669.44;10307610;28;2137;-83
2021/07/28 12:38:14;;;;;;;;;;;20.90;99.90;;;20.72;92.43;95661.44;10329681;28;1973;-83
2021/07/28 12:43:16;;;;;;;;;;;21.20;99.90;;;21.74;87.80;95654.00;10316901;28;2126;-80
2021/07/28 12:48:19;;;;;;;;;;;21.80;99.90;;;21.70;84.78;95648.44;10326489;28;1341;-84
2021/07/28 12:53:22;;;;;;;;;;;22.10;99.90;;;21.87;81.92;95661.03;10327383;28;1788;-83
2021/07/28 12:58:25;;;;;;;;;;;22.20;99.90;;;21.43;83.74;95665.59;10338445;28;1749;-85
2021/07/28 13:03:30;;;;;;;;;;;22.20;99.90;;;20.84;86.03;95682.50;10325449;28;1952;-84
2021/07/28 13:08:36;;;;;;;;;;;21.90;99.90;;;20.44;85.50;95694.03;10314904;28;2221;-83
2021/07/28 13:13:39;;;;;;;;;;;21.50;99.90;;;20.14;86.78;95694.19;10322692;28;1696;-84
2021/07/28 13:18:42;;;;;;;;;;;21.20;99.90;;;19.72;88.10;95693.44;10305913;28;2030;-86
2021/07/28 13:23:44;;;;;;;;;;;20.70;99.90;;;19.91;87.90;95684.78;10310941;28;2170;-85
2021/07/28 13:28:48;;;;;;;;;;;20.60;99.90;;;19.94;88.21;95682.19;10310887;28;2225;-85
2021/07/28 13:33:51;;;;;;;;;;;20.80;99.90;;;20.24;85.65;95682.06;10296250;28;2177;-82
2021/07/28 13:38:56;;;;;;;;;;;20.90;99.90;;;20.50;84.12;95682.59;10321630;28;2250;-85
2021/07/28 13:44:02;;;;;;;;;;;21.00;99.90;;;20.44;82.28;95685.84;10303035;28;2490;-85
2021/07/28 13:49:29;;;;;;;;;;;21.10;99.90;;;20.46;81.98;95684.41;10300821;28;1860;-85
2021/07/28 13:54:50;;;;;;;;;;;21.20;99.90;;;20.76;84.72;95678.75;10196435;29;2083;-82
2021/07/28 13:59:53;;;;;;;;;;;21.30;99.90;;;21.20;80.86;95685.22;10204353;29;2191;-83
2021/07/28 14:04:56;;;;;;;;;;;21.60;99.90;;;21.32;78.62;95678.97;10225610;29;2160;-82
2021/07/28 14:09:59;;;;;;;;;;;21.90;99.90;;;21.29;82.57;95682.38;10224102;29;2082;-83
2021/07/28 14:15:02;;;;;;;;;;;22.00;99.90;;;21.51;79.56;95678.38;10203102;29;1945;-84
2021/07/28 14:20:05;;;;;;;;;;;22.10;99.90;;;21.56;78.11;95669.91;10220061;29;2063;-80
2021/07/28 14:25:07;;;;;;;;;;;22.40;99.90;;;21.51;78.12;95679.16;10276434;28;2099;-80
2021/07/28 14:30:10;;;;;;;;;;;22.30;99.90;;;21.10;78.51;95680.22;10293929;28;2007;-82
2021/07/28 14:35:13;;;;;;;;;;;22.10;99.90;;;20.98;80.78;95675.53;10309535;28;1900;-81
2021/07/28 14:40:16;;;;;;;;;;;21.90;99.90;;;21.04;81.49;95676.91;10298298;28;2051;-81
2021/07/28 14:45:19;;;;;;;;;;;21.80;99.90;;;20.65;85.67;95675.66;10294272;28;2114;-81
2021/07/28 14:50:22;;;;;;;;;;;21.60;99.90;;;20.33;87.02;95674.56;10299005;28;1805;-82
2021/07/28 14:55:24;;;;;;;;;;;21.40;99.90;;;20.18;88.01;95670.56;10310416;28;2148;-81
2021/07/28 15:00:27;;;;;;;;;;;21.20;99.90;;;20.22;90.33;95660.53;10308317;28;2125;-84
2021/07/28 15:05:30;;;;;;;;;;;21.10;99.90;;;20.28;88.44;95660.34;10307082;28;2304;-83
2021/07/28 15:10:33;;;;;;;;;;;21.10;99.90;;;20.35;88.68;95661.38;10301496;28;1753;-80
2021/07/28 15:15:36;;;;;;;;;;;21.10;99.90;;;20.44;87.66;95670.25;10312290;28;2044;-82
2021/07/28 15:20:39;;;;;;;;;;;21.20;99.90;;;20.63;87.55;95666.22;10304682;28;2062;-82
2021/07/28 15:25:42;;;;;;;;;;;21.30;99.90;;;21.16;80.67;95661.66;10315136;28;1832;-83
2021/07/28 15:30:45;;;;;;;;;;;21.60;99.90;;;21.53;81.17;95670.59;10312934;28;1999;-83
2021/07/28 15:35:48;;;;;;;;;;;22.00;99.90;;;22.59;72.65;95666.50;10312925;28;1968;-80
2021/07/28 15:40:51;;;;;;;;;;;22.70;99.90;;;23.74;70.34;95659.78;10321063;28;2019;-81
2021/07/28 15:45:54;;;;;;;;;;;23.50;99.90;;;24.09;66.19;95651.44;10346444;28;2504;-82
2021/07/28 15:50:58;;;;;;;;;;;24.30;99.90;;;24.26;66.60;95648.22;10300120;28;1236;-85
2021/07/28 15:56:00;;;;;;;;;;;24.70;99.90;;;23.69;67.27;95646.34;10308229;28;1813;-82
2021/07/28 16:01:03;;;;;;;;;;;24.80;99.90;;;23.34;68.03;95641.63;10312316;28;2035;-83
2021/07/28 16:06:09;;;;;;;;;;;24.40;99.90;;;24.05;66.54;95642.34;10308193;28;1930;-84
2021/07/28 16:11:13;;;;;;;;;;;24.40;99.90;;;23.67;64.05;95638.47;10314914;28;2170;-82
2021/07/28 16:16:16;;;;;;;;;;;24.50;99.90;;;23.56;66.23;95636.63;10304365;28;2043;-81
2021/07/28 16:21:19;;;;;;;;;;;24.30;99.90;;;23.46;66.89;95627.00;10308877;28;2185;-82
2021/07/28 16:26:22;;;;;;;;;;;24.20;99.90;;;23.34;67.03;95630.66;10320216;28;1955;-83
2021/07/28 16:31:24;;;;;;;;;;;24.10;99.90;;;23.12;67.68;95634.91;10297581;28;1924;-83
2021/07/28 16:36:27;;;;;;;;;;;24.00;99.90;;;22.71;69.41;95630.75;10308341;28;1680;-83
2021/07/28 16:41:30;;;;;;;;;;;23.70;99.90;;;22.28;71.75;95639.88;10325510;28;1891;-83
2021/07/28 16:46:33;;;;;;;;;;;23.40;99.90;;;22.13;72.93;95633.22;10321830;28;1632;-82
2021/07/28 16:51:36;;;;;;;;;;;23.20;99.90;;;21.88;74.76;95640.72;10320502;28;1915;-82
2021/07/28 16:56:39;;;;;;;;;;;22.90;99.90;;;22.05;73.54;95634.16;10304951;28;2066;-81
2021/07/28 17:01:42;;;;;;;;;;;22.80;99.90;;;21.57;75.25;95639.50;10302186;28;2087;-84
2021/07/28 17:06:53;;;;;;;;;;;22.70;99.90;;;21.43;76.28;95636.31;10297561;28;1751;-82
2021/07/28 17:11:56;;;;;;;;;;;22.50;99.90;;;21.18;78.12;95632.03;10294147;28;1978;-82
2021/07/28 17:16:59;;;;;;;;;;;22.20;99.90;;;21.09;78.78;95642.31;10319709;28;1643;-82
2021/07/28 17:22:02;;;;;;;;;;;22.00;99.90;;;21.61;75.51;95638.78;10310067;28;1898;-79
2021/07/28 17:27:05;;;;;;;;;;;22.20;99.90;;;21.70;73.46;95625.78;10310705;28;1994;-83
2021/07/28 17:32:08;;;;;;;;;;;22.40;99.90;;;21.56;73.69;95637.09;10301666;28;2205;-84
2021/07/28 17:37:11;;;;;;;;;;;22.40;99.90;;;21.51;73.46;95637.34;10315382;28;2066;-85
2021/07/28 17:42:13;;;;;;;;;;;22.40;99.90;;;21.23;73.79;95629.06;10304581;28;2118;-85
2021/07/28 17:47:16;;;;;;;;;;;22.20;99.90;;;21.09;72.45;95626.69;10299079;28;2004;-85
2021/07/28 17:52:19;;;;;;;;;;;22.10;99.90;;;21.06;72.75;95630.13;10293333;28;1984;-80
2021/07/28 17:57:22;;;;;;;;;;;21.90;99.90;;;20.71;74.24;95635.28;10289738;28;2063;-82
2021/07/28 18:02:24;;;;;;;;;;;21.70;99.90;;;20.64;75.07;95629.59;10320306;28;1918;-82
2021/07/28 18:07:28;;;;;;;;;;;21.60;99.90;;;20.65;75.80;95631.16;10297953;28;1916;-81
2021/07/28 18:12:31;;;;;;;;;;;21.60;99.90;;;20.51;76.08;95637.78;10289355;28;2125;-81
2021/07/28 18:17:34;;;;;;;;;;;21.50;99.90;;;20.46;77.77;95631.72;10285839;28;1955;-81
2021/07/28 18:22:38;;;;;;;;;;;21.50;99.90;;;20.35;79.50;95627.81;10274650;28;2011;-81
2021/07/28 18:27:41;;;;;;;;;;;21.30;99.90;;;20.19;80.49;95635.88;10293405;28;1818;-80
2021/07/28 18:32:46;;;;;;;;;;;21.20;99.90;;;19.98;83.20;95635.94;10314113;28;1671;-81
2021/07/28 18:37:49;;;;;;;;;;;21.10;99.90;;;19.95;83.60;95642.84;10299958;28;2025;-82
2021/07/28 18:42:53;;;;;;;;;;;20.90;99.90;;;19.84;84.70;95649.06;10297565;28;2102;-79
2021/07/28 18:47:56;;;;;;;;;;;20.80;99.90;;;19.90;84.82;95651.25;10291187;28;2291;-80
2021/07/28 18:53:00;;;;;;;;;;;20.80;99.90;;;19.63;85.93;95654.56;10304249;28;1974;-82
2021/07/28 18:58:02;;;;;;;;;;;20.70;99.90;;;19.54;86.72;95657.34;10314390;28;2176;-83
2021/07/28 19:03:05;;;;;;;;;;;20.60;99.90;;;19.36;88.33;95653.94;10301352;28;2140;-80
2021/07/28 19:08:08;;;;;;;;;;;20.40;99.90;;;19.28;88.97;95664.91;10317410;28;2343;-81
2021/07/28 19:13:11;;;;;;;;;;;20.40;99.90;;;19.22;88.95;95661.59;10326026;28;2168;-80
2021/07/28 19:18:14;;;;;;;;;;;20.30;99.90;;;19.00;89.80;95659.94;10315165;28;1749;-83
2021/07/28 19:23:17;;;;;;;;;;;20.20;99.90;;;19.02;88.85;95660.44;10297400;28;2074;-81
2021/07/28 19:28:19;;;;;;;;;;;20.00;99.90;;;18.83;90.22;95669.03;10302145;28;2117;-82
2021/07/28 19:33:23;;;;;;;;;;;20.00;99.90;;;18.87;90.32;95674.59;10294593;28;2071;-80
2021/07/28 19:38:26;;;;;;;;;;;19.90;99.90;;;18.99;89.70;95687.53;10306367;28;2125;-80
2021/07/28 19:43:28;;;;;;;;;;;19.90;99.90;;;18.84;89.72;95688.91;10295490;28;2078;-81
2021/07/28 19:48:31;;;;;;;;;;;19.90;99.90;;;18.71;91.28;95688.00;10296509;28;2118;-79
2021/07/28 19:53:34;;;;;;;;;;;19.80;99.90;;;18.80;89.28;95686.03;10293924;28;2054;-80
2021/07/28 19:58:37;;;;;;;;;;;19.80;99.90;;;18.88;88.28;95687.88;10302779;28;2073;-80
2021/07/28 20:03:39;;;;;;;;;;;19.80;99.90;;;18.96;87.57;95688.16;10307518;28;2008;-82
2021/07/28 20:08:42;;;;;;;;;;;19.90;99.90;;;18.53;90.59;95686.44;10292413;28;2115;-83
2021/07/28 20:13:46;;;;;;;;;;;19.70;99.90;;;18.31;91.57;95685.53;10287961;28;2245;-83
2021/07/28 20:18:49;;;;;;;;;;;19.50;99.90;;;18.07;94.21;95683.38;10290034;28;2099;-81
2021/07/28 20:23:52;;;;;;;;;;;19.30;99.90;;;17.81;95.55;95691.56;10286295;28;2086;-80
2021/07/28 20:28:54;;;;;;;;;;;19.00;99.90;;;17.61;96.75;95694.88;10283662;28;2254;-81
2021/07/28 20:33:58;;;;;;;;;;;18.80;99.90;;;17.43;98.51;95694.09;10282149;28;2167;-81
2021/07/28 20:39:01;;;;;;;;;;;18.60;99.90;;;17.32;99.04;95695.53;10279010;28;2081;-80
2021/07/28 20:44:03;;;;;;;;;;;18.50;99.90;;;17.22;99.87;95699.34;10285540;28;2288;-81
2021/07/28 20:49:06;;;;;;;;;;;18.40;99.90;;;17.11;100.00;95687.16;10289976;28;2122;-80
2021/07/28 20:54:09;;;;;;;;;;;18.30;99.90;;;17.09;100.00;95692.13;10288849;28;2142;-82
2021/07/28 20:59:12;;;;;;;;;;;18.20;99.90;;;17.01;100.00;95687.50;10288637;28;2241;-81
2021/07/28 21:04:15;;;;;;;;;;;18.20;99.90;;;16.91;100.00;95691.28;10294160;28;2063;-83
2021/07/28 21:09:18;;;;;;;;;;;18.10;99.90;;;16.91;100.00;95687.78;10288154;28;1980;-81
2021/07/28 21:14:21;;;;;;;;;;;18.00;99.90;;;16.78;100.00;95685.97;10299795;28;1836;-80
2021/07/28 21:19:23;;;;;;;;;;;17.90;99.90;;;16.60;100.00;95685.88;10294139;28;2044;-80
2021/07/28 21:24:37;;;;;;;;;;;17.80;99.90;;;16.43;100.00;95689.34;10289168;28;1985;-80
2021/07/28 21:29:40;;;;;;;;;;;17.70;99.90;;;16.37;100.00;95689.81;10285331;28;1993;-82
2021/07/28 21:34:43;;;;;;;;;;;17.60;99.90;;;16.36;100.00;95688.19;10284750;28;2336;-81
2021/07/28 21:39:45;;;;;;;;;;;17.50;99.90;;;16.35;100.00;95692.84;10277408;28;1960;-80
2021/07/28 21:44:57;;;;;;;;;;;17.50;99.90;;;16.28;100.00;95691.66;10286195;28;2070;-80
2021/07/28 21:49:59;;;;;;;;;;;17.40;99.90;;;16.25;100.00;95697.72;10304659;28;2122;-81
2021/07/28 21:55:02;;;;;;;;;;;17.40;99.90;;;16.43;100.00;95693.97;10286241;28;2155;-79
2021/07/28 22:00:05;;;;;;;;;;;17.40;99.90;;;16.63;100.00;95688.00;10279753;28;2210;-80
2021/07/28 22:05:08;;;;;;;;;;;17.50;99.90;;;16.69;100.00;95697.59;10283608;28;2280;-80
2021/07/28 22:10:10;;;;;;;;;;;17.70;99.90;;;16.74;100.00;95696.69;10295220;28;2194;-77
2021/07/28 22:15:13;;;;;;;;;;;17.70;99.90;;;16.67;100.00;95699.81;10290056;28;2189;-76
2021/07/28 22:20:16;;;;;;;;;;;17.70;99.90;;;16.66;100.00;95700.91;10296800;28;2225;-79
2021/07/28 22:25:19;;;;;;;;;;;17.70;99.90;;;16.68;100.00;95701.44;10290728;28;1957;-81
2021/07/28 22:30:22;;;;;;;;;;;17.70;99.90;;;16.69;100.00;95705.72;10279538;28;2050;-81
2021/07/28 22:35:26;;;;;;;;;;;17.70;99.90;;;16.71;100.00;95695.38;10306232;28;1756;-79
2021/07/28 22:40:29;;;;;;;;;;;17.70;99.90;;;16.58;100.00;95701.69;10297630;28;2114;-79
2021/07/28 22:45:31;;;;;;;;;;;17.70;99.90;;;16.53;100.00;95706.44;10301533;28;1887;-79
2021/07/28 22:55:54;;;;;;;;;;;17.60;99.90;;;16.45;100.00;95705.31;10293009;28;2183;-82
2021/07/28 23:06:42;;;;;;;;;;;17.50;99.90;;;16.34;100.00;95706.69;10289693;28;1341;-80
2021/07/28 23:06:45;;;;;;;;;;;17.50;99.90;;;16.24;100.00;95702.34;10285391;28;2024;-82
2021/07/28 23:11:47;;;;;;;;;;;17.30;99.90;;;16.17;100.00;95696.56;10282846;28;2091;-81
2021/07/28 23:16:50;;;;;;;;;;;17.30;99.90;;;16.21;100.00;95692.91;10288733;28;2098;-81